Poco das Trincheiras, Brazil
Current Conditions -  °F | °C
As of 5:00 AM on Wednesday 26 Nov 2014 (Local Time) from SBMO Reporting Station
Scattered Clouds Scattered Clouds  
Wind Chill: 73°   Ceiling: Unl
Heat Index: 73°   Visibility: 6mi
Dew Point: 73°   Wind: 3mph
Humidity: 100%   Direction: 350°N
Pressure: 29.91"   Gusts: NA
Location:  9.31°S, 37.26°W
Report Text: SBMO 260800Z 35003KT 9999 SCT017 23/23 Q1013
Loading
Personal Weather Stations






























Interactive Weather Map New forecast layout! Learn more

10-Day Weather Forecast

Advertisements
Track Severe Weather on mobile